createdAt,value
2023-02-03T00:02:27.795Z,101614.72
2023-02-03T00:05:14.937Z,101539.91
2023-02-03T00:08:01.942Z,101621.38
2023-02-03T00:10:48.895Z,101629.88
2023-02-03T00:13:35.996Z,101606.13
2023-02-03T00:16:22.997Z,101623.56
2023-02-03T00:19:10.007Z,101625.16
2023-02-03T00:21:56.980Z,101619.72
2023-02-03T00:24:44.023Z,101629.19
2023-02-03T00:27:31.004Z,101637.69
2023-02-03T00:30:18.491Z,101634.06
2023-02-03T00:33:05.393Z,101636.50
2023-02-03T00:35:52.281Z,101634.66
2023-02-03T00:38:39.416Z,101625.00
2023-02-03T00:41:27.544Z,101639.59
2023-02-03T00:44:14.640Z,101631.75
2023-02-03T00:47:01.668Z,101623.84
2023-02-03T00:49:49.583Z,101617.69
2023-02-03T00:52:37.016Z,101627.84
2023-02-03T00:55:25.525Z,101631.22
2023-02-03T00:57:52.500Z,101623.19
2023-02-03T01:00:20.668Z,101628.34
2023-02-03T01:02:48.106Z,101628.31
2023-02-03T01:05:15.075Z,101631.63
2023-02-03T01:07:42.395Z,101622.97
2023-02-03T01:10:09.828Z,101636.63
2023-02-03T01:12:36.936Z,101635.66
2023-02-03T01:15:04.247Z,101635.59
2023-02-03T01:17:31.262Z,101634.66
2023-02-03T01:19:58.269Z,101629.38
2023-02-03T01:22:25.304Z,101542.34
2023-02-03T01:24:52.379Z,101562.53
2023-02-03T01:27:19.463Z,101625.63
2023-02-03T01:29:46.404Z,101621.19
2023-02-03T01:32:13.797Z,101613.97
2023-02-03T01:34:40.752Z,101617.50
2023-02-03T01:37:07.704Z,101609.50
2023-02-03T01:39:34.663Z,101617.38
2023-02-03T01:42:01.665Z,101618.16
2023-02-03T01:44:51.301Z,101618.97
2023-02-03T01:47:29.896Z,101621.44
2023-02-03T01:50:18.708Z,101618.69
2023-02-03T01:52:51.418Z,101571.91
2023-02-03T01:55:22.221Z,101631.50
2023-02-03T01:58:02.225Z,101636.59
2023-02-03T02:00:30.468Z,101558.53
2023-02-03T02:03:00.458Z,101635.53
2023-02-03T02:05:35.349Z,101639.84
2023-02-03T02:08:04.216Z,101641.38
2023-02-03T02:10:32.370Z,101625.56
2023-02-03T02:13:01.164Z,101647.38
2023-02-03T02:16:09.689Z,101637.81
2023-02-03T02:18:43.004Z,101621.94
2023-02-03T02:21:40.137Z,101637.56
2023-02-03T02:24:44.705Z,101640.91
2023-02-03T02:27:32.746Z,101630.50
2023-02-03T02:30:44.815Z,101642.41
2023-02-03T02:33:28.274Z,101643.19
2023-02-03T02:35:58.870Z,101640.50
2023-02-03T02:38:55.284Z,101640.44
2023-02-03T02:41:31.621Z,101646.31
2023-02-03T02:44:13.497Z,101648.84
2023-02-03T02:46:46.837Z,101647.88
2023-02-03T02:49:22.220Z,101659.78
2023-02-03T02:51:51.946Z,101659.59
2023-02-03T02:54:23.930Z,101658.72
2023-02-03T02:56:56.575Z,101649.19
2023-02-03T02:59:24.265Z,101653.38
2023-02-03T03:01:51.606Z,101665.41
2023-02-03T03:04:26.693Z,101651.50
2023-02-03T03:07:16.840Z,101650.56
2023-02-03T03:09:48.648Z,101653.00
2023-02-03T03:12:15.628Z,101649.47
2023-02-03T03:14:47.221Z,101659.66
2023-02-03T03:17:20.709Z,101663.88
2023-02-03T03:19:52.660Z,101664.63
2023-02-03T03:22:24.116Z,101657.41
2023-02-03T03:24:58.492Z,101659.28
2023-02-03T03:27:32.552Z,101659.97
2023-02-03T03:30:08.718Z,101656.44
2023-02-03T03:32:35.923Z,101649.50
2023-02-03T03:35:04.198Z,101646.78
2023-02-03T03:38:05.035Z,101644.97
2023-02-03T03:41:02.131Z,101644.03
2023-02-03T03:43:33.920Z,101636.19
2023-02-03T03:46:00.749Z,101644.63
2023-02-03T03:48:34.520Z,101634.28
2023-02-03T03:51:05.977Z,101638.19
2023-02-03T03:53:36.805Z,101640.94
2023-02-03T03:56:08.505Z,101644.31
2023-02-03T03:58:38.761Z,101643.38
2023-02-03T04:01:07.930Z,101645.00
2023-02-03T04:03:46.598Z,101648.34
2023-02-03T04:06:13.891Z,101652.53
2023-02-03T04:08:40.968Z,101654.13
2023-02-03T04:11:08.601Z,101651.50
2023-02-03T04:13:35.533Z,101653.16
2023-02-03T04:16:02.590Z,101648.72
2023-02-03T04:18:30.100Z,101597.41
2023-02-03T04:20:57.000Z,101597.41
2023-02-03T04:23:24.214Z,101643.00
2023-02-03T04:25:51.217Z,101663.69
2023-02-03T04:28:18.682Z,101655.72
2023-02-03T04:30:45.776Z,101665.19
2023-02-03T04:33:12.761Z,101665.13
2023-02-03T04:35:39.649Z,101655.47
2023-02-03T04:38:06.621Z,101665.06
2023-02-03T04:40:35.116Z,101671.72
2023-02-03T04:43:08.711Z,101663.16
2023-02-03T04:45:35.948Z,101664.78
2023-02-03T04:48:04.672Z,101669.78
2023-02-03T04:50:32.081Z,101668.03
2023-02-03T04:53:00.600Z,101671.44
2023-02-03T04:55:28.546Z,101666.00
2023-02-03T04:58:00.454Z,101678.06
2023-02-03T05:00:28.995Z,101681.34
2023-02-03T05:02:56.177Z,101684.66
2023-02-03T05:05:23.263Z,101681.09
2023-02-03T05:07:50.105Z,101684.44
2023-02-03T05:10:17.194Z,101649.91
2023-02-03T05:12:44.154Z,101687.75
2023-02-03T05:15:11.146Z,101584.81
2023-02-03T05:17:40.026Z,101691.84
2023-02-03T05:20:08.193Z,101688.31
2023-02-03T05:22:35.841Z,101676.97
2023-02-03T05:25:03.909Z,101687.34
2023-02-03T05:27:31.149Z,101690.63
2023-02-03T05:29:58.174Z,101683.66
2023-02-03T05:32:25.769Z,101689.56
2023-02-03T05:34:52.816Z,101689.38
2023-02-03T05:37:19.870Z,101684.16
2023-02-03T05:39:46.830Z,101680.53
2023-02-03T05:42:13.903Z,101683.09
2023-02-03T05:44:41.029Z,101683.03
2023-02-03T05:47:27.952Z,101680.31
2023-02-03T05:50:14.853Z,101676.78
2023-02-03T05:53:02.582Z,101682.66
2023-02-03T05:55:50.767Z,101673.56
2023-02-03T05:58:37.873Z,101688.31
2023-02-03T06:01:25.037Z,101695.00
2023-02-03T06:04:12.475Z,101697.59
2023-02-03T06:06:59.502Z,101701.69
2023-02-03T06:09:46.401Z,101705.91
2023-02-03T06:12:33.402Z,101705.78
2023-02-03T06:15:20.403Z,101700.34
2023-02-03T06:18:08.930Z,101675.69
2023-02-03T06:20:55.926Z,101700.34
2023-02-03T06:23:42.968Z,101705.34
2023-02-03T06:26:29.944Z,101705.34
2023-02-03T06:29:16.913Z,101706.94
2023-02-03T06:32:03.874Z,101702.47
2023-02-03T06:34:51.103Z,101711.16
2023-02-03T06:37:38.386Z,101711.72
2023-02-03T06:40:26.427Z,101725.50
2023-02-03T06:43:13.639Z,101737.31
2023-02-03T06:46:00.871Z,101733.88
2023-02-03T06:48:47.731Z,101730.34
2023-02-03T06:51:34.942Z,101731.94
2023-02-03T06:54:22.220Z,101740.38
2023-02-03T06:57:09.299Z,101734.28
2023-02-03T06:59:56.302Z,101738.44
2023-02-03T07:02:43.533Z,101753.00
2023-02-03T07:05:31.162Z,101740.72
2023-02-03T07:08:18.331Z,101755.41
2023-02-03T07:11:05.205Z,101707.59
2023-02-03T07:13:52.190Z,101742.81
2023-02-03T07:16:39.435Z,101764.56
2023-02-03T07:19:27.409Z,101772.00
2023-02-03T07:22:14.424Z,101780.59
2023-02-03T07:25:01.581Z,101781.06
2023-02-03T07:27:48.606Z,101739.41
2023-02-03T07:30:35.993Z,101784.69
2023-02-03T07:33:23.041Z,101794.88
2023-02-03T07:36:14.474Z,101802.50
2023-02-03T07:39:01.353Z,101799.03
2023-02-03T07:41:48.421Z,101759.03
2023-02-03T07:44:16.339Z,101812.53
2023-02-03T07:46:45.036Z,101805.63
2023-02-03T07:49:12.467Z,101744.59
2023-02-03T07:51:39.652Z,101787.75
2023-02-03T07:54:07.052Z,101817.56
2023-02-03T07:56:34.073Z,101823.50
2023-02-03T07:59:00.926Z,101819.25
2023-02-03T08:01:28.474Z,101739.97
2023-02-03T08:03:55.568Z,101824.31
2023-02-03T08:06:22.987Z,101826.88
2023-02-03T08:09:10.167Z,101824.06
2023-02-03T08:11:57.071Z,101827.69
2023-02-03T08:14:44.092Z,101802.81
2023-02-03T08:17:30.940Z,101836.19
2023-02-03T08:20:17.949Z,101841.31
2023-02-03T08:23:04.849Z,101791.97
2023-02-03T08:25:52.014Z,101838.66
2023-02-03T08:28:35.256Z,101852.34
2023-02-03T08:31:02.422Z,101841.13
2023-02-03T08:33:29.560Z,101841.13
2023-02-03T08:35:57.054Z,101848.03
2023-02-03T08:38:24.113Z,101850.59
2023-02-03T08:40:51.151Z,101811.97
2023-02-03T08:43:38.233Z,101855.81
2023-02-03T08:46:26.646Z,101797.53
2023-02-03T08:49:14.643Z,101858.38
2023-02-03T08:52:01.660Z,101835.94
2023-02-03T08:54:28.609Z,101866.00
2023-02-03T08:56:55.586Z,101872.19
2023-02-03T08:59:23.086Z,101865.34
2023-02-03T09:01:50.787Z,101855.34
2023-02-03T09:04:19.488Z,101797.06
2023-02-03T09:06:49.885Z,101885.94
2023-02-03T09:09:17.000Z,101876.34
2023-02-03T09:11:44.158Z,101877.16
2023-02-03T09:14:11.373Z,101898.84
2023-02-03T09:16:39.010Z,101906.72
2023-02-03T09:19:06.429Z,101823.19
2023-02-03T09:21:38.633Z,101906.88
2023-02-03T09:24:08.969Z,101905.19
2023-02-03T09:26:35.877Z,101902.41
2023-02-03T09:29:03.255Z,101914.03
2023-02-03T09:31:30.341Z,101920.19
2023-02-03T09:33:59.105Z,101875.44
2023-02-03T09:36:26.323Z,101922.06
2023-02-03T09:38:53.381Z,101912.41
2023-02-03T09:41:49.690Z,101917.88
2023-02-03T09:44:20.577Z,101932.72
2023-02-03T09:47:02.669Z,101930.31
2023-02-03T09:49:39.840Z,101939.00
2023-02-03T09:52:17.838Z,101941.72
2023-02-03T09:55:02.802Z,101926.41
2023-02-03T09:57:42.886Z,101936.75
2023-02-03T10:00:36.460Z,101941.31
2023-02-03T10:03:14.669Z,101950.84
2023-02-03T10:06:13.939Z,101945.09
2023-02-03T10:09:14.667Z,101943.63
2023-02-03T10:12:12.666Z,101947.97
2023-02-03T10:15:08.482Z,101958.56
2023-02-03T10:17:42.182Z,101963.03
2023-02-03T10:20:09.121Z,101958.94
2023-02-03T10:23:10.782Z,101887.56
2023-02-03T10:26:05.698Z,101951.63
2023-02-03T10:28:40.242Z,101953.22
2023-02-03T10:31:18.543Z,101894.84
2023-02-03T10:33:47.471Z,101965.91
2023-02-03T10:36:21.681Z,101966.84
2023-02-03T10:39:00.247Z,101968.88
2023-02-03T10:41:30.803Z,101966.53
2023-02-03T10:43:58.716Z,101973.59
2023-02-03T10:46:30.127Z,101978.09
2023-02-03T10:48:57.981Z,101967.97
2023-02-03T10:51:32.646Z,101959.94
2023-02-03T10:54:00.779Z,101980.34
2023-02-03T10:56:36.857Z,101976.09
2023-02-03T10:59:24.643Z,101902.16
2023-02-03T11:02:11.596Z,101986.09
2023-02-03T11:04:58.487Z,101989.72
2023-02-03T11:07:47.331Z,101989.03
2023-02-03T11:10:58.747Z,101989.19
2023-02-03T11:13:46.849Z,102000.66
2023-02-03T11:16:39.948Z,101990.16
2023-02-03T11:19:36.816Z,102017.44
2023-02-03T11:22:23.862Z,102003.13
2023-02-03T11:25:10.886Z,101999.88
2023-02-03T11:27:57.776Z,102002.69
2023-02-03T11:30:39.567Z,102000.19
2023-02-03T11:33:20.681Z,102003.13
2023-02-03T11:35:59.688Z,101947.69
2023-02-03T11:38:38.750Z,102007.09
2023-02-03T11:41:25.875Z,102016.78
2023-02-03T11:44:15.834Z,102017.91
2023-02-03T11:47:04.849Z,102019.00
2023-02-03T11:50:12.029Z,102023.47
2023-02-03T11:53:10.511Z,102029.72
2023-02-03T11:56:30.920Z,102036.91
2023-02-03T11:59:21.128Z,102035.44
2023-02-03T12:02:03.440Z,102043.47
2023-02-03T12:04:58.196Z,102033.09
2023-02-03T12:07:44.162Z,102040.41
2023-02-03T12:10:32.904Z,102047.56
2023-02-03T12:13:05.789Z,102047.78
2023-02-03T12:15:35.760Z,102032.19
2023-02-03T12:18:02.649Z,102047.31
2023-02-03T12:20:44.740Z,102042.34
2023-02-03T12:23:23.823Z,102046.84
2023-02-03T12:26:04.232Z,102038.09
2023-02-03T12:28:55.370Z,102043.56
2023-02-03T12:31:27.659Z,102065.56
2023-02-03T12:34:04.674Z,102001.47
2023-02-03T12:36:40.070Z,102022.69
2023-02-03T12:39:35.662Z,102076.47
2023-02-03T12:42:52.449Z,102074.16
2023-02-03T12:45:49.448Z,102082.09
2023-02-03T12:48:42.517Z,102080.63
2023-02-03T12:51:36.516Z,102087.75
2023-02-03T12:54:47.544Z,102080.75
2023-02-03T12:57:46.080Z,102092.50
2023-02-03T13:00:48.749Z,102094.44
2023-02-03T13:03:39.060Z,102098.97
2023-02-03T13:07:03.340Z,102092.06
2023-02-03T13:09:56.120Z,102114.13
2023-02-03T13:12:59.760Z,102108.41
2023-02-03T13:16:02.476Z,102113.09
2023-02-03T13:18:54.889Z,102124.59
2023-02-03T13:21:41.766Z,102116.13
2023-02-03T13:24:31.435Z,102112.72
2023-02-03T13:27:33.278Z,102131.25
2023-02-03T13:30:46.279Z,102133.16
2023-02-03T13:33:36.223Z,102132.47
2023-02-03T13:36:45.174Z,102150.66
2023-02-03T13:39:43.889Z,102155.97
2023-02-03T13:42:36.854Z,102163.00
2023-02-03T13:45:42.079Z,102162.28
2023-02-03T13:48:35.178Z,102171.03
2023-02-03T13:51:28.392Z,102104.78
2023-02-03T13:54:21.847Z,102150.84
2023-02-03T13:57:21.278Z,102163.91
2023-02-03T14:00:08.717Z,102189.50
2023-02-03T14:03:12.962Z,102187.84
2023-02-03T14:06:04.567Z,102194.88
2023-02-03T14:08:51.265Z,102206.13
2023-02-03T14:11:56.332Z,102211.34
2023-02-03T14:14:43.234Z,102205.38
2023-02-03T14:17:56.577Z,102221.75
2023-02-03T14:20:46.497Z,102219.09
2023-02-03T14:23:45.244Z,102229.50
2023-02-03T14:26:39.931Z,102223.41
2023-02-03T14:29:29.425Z,102236.41
2023-02-03T14:32:23.177Z,102248.44
2023-02-03T14:35:10.653Z,102256.06
2023-02-03T14:37:57.520Z,102266.44
2023-02-03T14:41:21.703Z,102269.88
2023-02-03T14:44:31.771Z,102276.72
2023-02-03T14:47:40.660Z,102281.81
2023-02-03T14:50:33.304Z,102288.63
2023-02-03T14:53:43.777Z,102289.44
2023-02-03T14:56:39.890Z,102243.94
2023-02-03T14:59:30.833Z,102304.56
2023-02-03T15:02:23.414Z,102312.50
2023-02-03T15:05:11.719Z,102327.94
2023-02-03T15:08:06.040Z,102249.22
2023-02-03T15:11:03.602Z,102345.88
2023-02-03T15:13:51.700Z,102345.00
2023-02-03T15:16:41.080Z,102327.13
2023-02-03T15:19:36.804Z,102330.50
2023-02-03T15:22:42.313Z,102341.94
2023-02-03T15:25:38.551Z,102353.88
2023-02-03T15:28:33.376Z,102339.91
2023-02-03T15:31:37.736Z,102363.41
2023-02-03T15:34:36.808Z,102372.78
2023-02-03T15:37:37.479Z,102372.72
2023-02-03T15:40:30.213Z,102382.97
2023-02-03T15:43:29.445Z,102380.19
2023-02-03T15:46:18.981Z,102383.66
2023-02-03T15:49:18.208Z,102386.19
2023-02-03T15:52:11.246Z,102404.25
2023-02-03T15:55:03.139Z,102418.72
2023-02-03T15:57:52.519Z,102365.66
2023-02-03T16:00:53.414Z,102413.25
2023-02-03T16:03:48.171Z,102421.84
2023-02-03T16:06:55.315Z,102441.53
2023-02-03T16:09:53.503Z,102445.72
2023-02-03T16:12:53.722Z,102446.41
2023-02-03T16:15:42.839Z,102454.06
2023-02-03T16:18:37.445Z,102450.53
2023-02-03T16:21:25.744Z,102459.88
2023-02-03T16:24:12.690Z,102461.53
2023-02-03T16:26:59.714Z,102461.44
2023-02-03T16:29:48.538Z,102468.22
2023-02-03T16:32:39.366Z,102471.56
2023-02-03T16:35:29.179Z,102468.91
2023-02-03T16:38:14.738Z,102395.91
2023-02-03T16:41:00.555Z,102486.53
2023-02-03T16:43:45.841Z,102487.47
2023-02-03T16:46:31.326Z,102471.22
2023-02-03T16:49:16.998Z,102503.63
2023-02-03T16:52:03.918Z,102514.72
2023-02-03T16:54:50.797Z,102522.31
2023-02-03T16:57:38.291Z,102514.19
2023-02-03T17:00:25.627Z,102479.09
2023-02-03T17:03:12.686Z,102522.44
2023-02-03T17:06:01.684Z,102537.34
2023-02-03T17:08:48.591Z,102538.91
2023-02-03T17:11:38.053Z,102537.91
2023-02-03T17:14:25.025Z,102534.38
2023-02-03T17:17:11.819Z,102544.59
2023-02-03T17:19:58.721Z,102548.00
2023-02-03T17:22:46.904Z,102554.78
2023-02-03T17:25:33.875Z,102570.16
2023-02-03T17:28:20.772Z,102570.75
2023-02-03T17:31:26.086Z,102575.09
2023-02-03T17:34:13.252Z,102574.78
2023-02-03T17:37:00.354Z,102577.34
2023-02-03T17:55:14.056Z,102624.09
2023-02-03T17:58:01.177Z,102627.06
2023-02-03T18:00:48.144Z,102642.78
2023-02-03T18:03:35.100Z,102648.66
2023-02-03T18:06:22.138Z,102651.16
2023-02-03T18:09:09.730Z,102662.28
2023-02-03T18:11:57.896Z,102675.09
2023-02-03T18:14:44.846Z,102679.28
2023-02-03T18:17:31.755Z,102674.84
2023-02-03T18:20:18.651Z,102680.78
2023-02-03T18:23:05.571Z,102691.84
2023-02-03T18:25:55.565Z,102655.22
2023-02-03T18:28:43.134Z,102658.50
2023-02-03T18:31:35.612Z,102693.25
2023-02-03T18:34:23.931Z,102726.69
2023-02-03T18:37:10.874Z,102740.38
2023-02-03T18:39:57.797Z,102743.69
2023-02-03T18:42:45.124Z,102747.81
2023-02-03T18:45:32.181Z,102755.47
2023-02-03T18:48:19.097Z,102741.25
2023-02-03T18:51:06.123Z,102758.56
2023-02-03T18:53:53.119Z,102766.09
2023-02-03T18:56:42.954Z,102767.72
2023-02-03T18:59:31.348Z,102781.41
2023-02-03T19:02:18.406Z,102782.13
2023-02-03T19:05:05.352Z,102788.84
2023-02-03T19:07:52.697Z,102789.41
2023-02-03T19:10:39.781Z,102801.47
2023-02-03T19:13:26.702Z,102801.94
2023-02-03T19:16:13.767Z,102808.13
2023-02-03T19:19:00.979Z,102814.91
2023-02-03T19:21:47.998Z,102811.25
2023-02-03T19:24:35.971Z,102814.63
2023-02-03T19:27:23.065Z,102820.91
2023-02-03T19:30:10.125Z,102824.47
2023-02-03T19:32:57.022Z,102836.56
2023-02-03T19:35:44.230Z,102832.13
2023-02-03T19:38:31.174Z,102831.94
2023-02-03T19:41:18.277Z,102790.59
2023-02-03T19:44:05.239Z,102843.72
2023-02-03T19:46:57.212Z,102846.13
2023-02-03T19:49:44.257Z,102838.34
2023-02-03T19:52:31.308Z,102868.13
2023-02-03T19:55:18.209Z,102876.56
2023-02-03T19:58:05.189Z,102862.13
2023-02-03T20:00:52.151Z,102871.13
2023-02-03T20:03:39.147Z,102869.34
2023-02-03T20:06:26.191Z,102870.84
2023-02-03T20:09:13.907Z,102876.88
2023-02-03T20:12:00.887Z,102887.97
2023-02-03T20:14:47.829Z,102880.97
2023-02-03T20:17:34.856Z,102880.78
2023-02-03T20:20:21.964Z,102887.59
2023-02-03T20:23:09.249Z,102882.06
2023-02-03T20:25:56.302Z,102882.75
2023-02-03T20:28:44.978Z,102885.56
2023-02-03T20:31:33.501Z,102906.91
2023-02-03T20:34:20.501Z,102900.78
2023-02-03T20:37:07.463Z,102913.56
2023-02-03T20:39:54.562Z,102911.50
2023-02-03T20:42:41.573Z,102918.22
2023-02-03T20:45:39.670Z,102914.69
2023-02-03T20:48:30.658Z,102920.59
2023-02-03T20:51:17.575Z,102929.03
2023-02-03T20:54:04.734Z,102930.50
2023-02-03T20:56:51.615Z,102932.13
2023-02-03T20:59:39.598Z,102949.94
2023-02-03T21:02:53.738Z,102953.19
2023-02-03T21:05:47.214Z,102885.41
2023-02-03T21:08:36.575Z,102967.31
2023-02-03T21:11:30.841Z,102967.72
2023-02-03T21:14:17.777Z,102961.19
2023-02-03T21:17:04.958Z,102983.16
2023-02-03T21:19:53.944Z,102957.91
2023-02-03T21:22:43.931Z,102993.06
2023-02-03T21:25:45.950Z,102918.28
2023-02-03T21:28:52.630Z,102990.09
2023-02-03T21:31:50.129Z,102989.88
2023-02-03T21:34:47.145Z,102994.81
2023-02-03T21:37:42.971Z,103005.81
2023-02-03T21:40:43.683Z,103000.56
2023-02-03T21:43:37.721Z,102999.56
2023-02-03T21:46:26.503Z,103005.16
2023-02-03T21:49:15.552Z,103023.09
2023-02-03T21:52:02.698Z,103033.28
2023-02-03T21:54:52.663Z,103023.69
2023-02-03T21:57:40.684Z,102991.09
2023-02-03T22:00:55.807Z,103038.69
2023-02-03T22:03:49.794Z,103034.16
2023-02-03T22:06:54.131Z,103041.75
2023-02-03T22:09:43.685Z,103045.00
2023-02-03T22:12:30.580Z,103049.94
2023-02-03T22:15:17.467Z,103062.66
2023-02-03T22:18:04.361Z,103065.84
2023-02-03T22:20:51.250Z,103063.16
2023-02-03T22:23:38.504Z,103073.22
2023-02-03T22:26:26.178Z,103082.50
2023-02-03T22:29:13.468Z,103032.13
2023-02-03T22:32:00.719Z,103072.06
2023-02-03T22:34:47.701Z,103086.09
2023-02-03T22:37:34.742Z,103073.41
2023-02-03T22:40:22.514Z,103069.97
2023-02-03T22:43:09.378Z,103112.97
2023-02-03T22:45:56.251Z,103093.00
2023-02-03T22:48:43.287Z,103129.03
2023-02-03T22:51:30.153Z,103116.22
2023-02-03T22:54:17.057Z,103138.97
2023-02-03T22:57:03.892Z,103142.22
2023-02-03T22:59:50.943Z,103127.03
2023-02-03T23:02:38.057Z,103147.91
2023-02-03T23:05:29.663Z,103149.38
2023-02-03T23:08:16.706Z,103129.41
2023-02-03T23:11:03.659Z,103145.84
2023-02-03T23:13:50.534Z,103161.78
2023-02-03T23:16:37.513Z,103161.69
2023-02-03T23:19:24.566Z,103159.75
2023-02-03T23:22:11.581Z,103168.16
2023-02-03T23:24:58.574Z,103155.66
2023-02-03T23:27:45.793Z,103117.78
2023-02-03T23:30:34.019Z,103171.94
2023-02-03T23:33:20.947Z,103183.91
2023-02-03T23:36:07.870Z,103178.66
2023-02-03T23:38:54.850Z,103184.44
2023-02-03T23:41:41.851Z,103192.81
2023-02-03T23:44:28.739Z,103209.88
2023-02-03T23:47:15.739Z,103209.78
2023-02-03T23:50:02.850Z,103222.50
2023-02-03T23:52:49.845Z,103216.22
2023-02-03T23:55:35.055Z,103216.13
2023-02-03T23:58:02.110Z,103207.75
